createdAt,value
2022-11-01T00:02:05.790Z,12.73
2022-11-01T00:04:32.890Z,11.83
2022-11-01T00:06:59.917Z,11.87
2022-11-01T00:09:27.036Z,12.30
2022-11-01T00:11:54.192Z,11.97
2022-11-01T00:14:21.575Z,11.87
2022-11-01T00:16:48.686Z,13.33
2022-11-01T00:19:15.927Z,12.97
2022-11-01T00:21:43.008Z,12.47
2022-11-01T00:24:10.146Z,12.03
2022-11-01T00:26:37.227Z,10.83
2022-11-01T00:29:04.503Z,11.03
2022-11-01T00:31:31.610Z,11.23
2022-11-01T00:33:58.730Z,10.97
2022-11-01T00:36:25.752Z,11.47
2022-11-01T00:38:53.361Z,11.50
2022-11-01T00:41:21.673Z,12.07
2022-11-01T00:43:49.026Z,12.00
2022-11-01T00:46:16.205Z,11.27
2022-11-01T00:48:43.283Z,12.00
2022-11-01T00:51:10.386Z,12.00
2022-11-01T00:53:37.425Z,12.17
2022-11-01T00:56:05.815Z,11.50
2022-11-01T00:58:33.055Z,11.13
2022-11-01T01:01:00.193Z,10.80
2022-11-01T01:03:27.314Z,10.73
2022-11-01T01:05:54.858Z,11.93
2022-11-01T01:08:21.981Z,12.03
2022-11-01T01:10:49.379Z,11.43
2022-11-01T01:13:16.634Z,11.63
2022-11-01T01:15:44.081Z,11.37
2022-11-01T01:18:11.397Z,11.80
2022-11-01T01:20:38.495Z,10.73
2022-11-01T01:23:05.547Z,11.30
2022-11-01T01:25:32.753Z,10.87
2022-11-01T01:28:00.019Z,12.60
2022-11-01T01:30:27.383Z,11.43
2022-11-01T01:32:54.422Z,11.97
2022-11-01T01:35:21.465Z,12.30
2022-11-01T01:37:48.496Z,13.97
2022-11-01T01:40:15.636Z,13.37
2022-11-01T01:42:43.275Z,12.00
2022-11-01T01:45:16.676Z,13.17
2022-11-01T01:47:45.223Z,12.73
2022-11-01T01:50:32.792Z,12.40
2022-11-01T01:53:07.633Z,11.77
2022-11-01T01:55:54.472Z,12.23
2022-11-01T01:58:23.477Z,11.10
2022-11-01T02:00:50.932Z,11.90
2022-11-01T02:03:18.257Z,11.40
2022-11-01T02:05:53.987Z,11.93
2022-11-01T02:08:27.799Z,11.27
2022-11-01T02:11:00.151Z,12.37
2022-11-01T02:13:27.189Z,11.37
2022-11-01T02:15:54.197Z,12.10
2022-11-01T02:18:27.266Z,11.87
2022-11-01T02:21:04.342Z,12.97
2022-11-01T02:23:46.657Z,11.60
2022-11-01T02:26:22.860Z,11.90
2022-11-01T02:29:03.086Z,12.30
2022-11-01T02:31:42.447Z,12.07
2022-11-01T02:34:28.458Z,12.50
2022-11-01T02:37:00.876Z,11.63
2022-11-01T02:39:31.968Z,11.70
2022-11-01T02:42:14.019Z,11.77
2022-11-01T02:44:44.125Z,11.30
2022-11-01T02:47:12.277Z,11.17
2022-11-01T02:49:44.013Z,11.27
2022-11-01T02:52:13.321Z,10.30
2022-11-01T02:54:41.391Z,10.87
2022-11-01T02:57:17.705Z,10.53
2022-11-01T02:59:45.986Z,10.90
2022-11-01T03:02:22.133Z,10.43
2022-11-01T03:04:49.281Z,9.73
2022-11-01T03:07:17.316Z,10.30
2022-11-01T03:09:44.704Z,10.03
2022-11-01T03:12:21.870Z,9.80
2022-11-01T03:15:08.171Z,9.33
2022-11-01T03:17:42.170Z,9.13
2022-11-01T03:20:25.502Z,9.40
2022-11-01T03:22:57.388Z,9.03
2022-11-01T03:25:44.369Z,9.20
2022-11-01T03:28:23.498Z,8.93
2022-11-01T03:30:56.137Z,9.37
2022-11-01T03:33:25.273Z,8.17
2022-11-01T03:35:53.789Z,8.67
2022-11-01T03:38:24.282Z,9.27
2022-11-01T03:40:54.608Z,8.63
2022-11-01T03:43:23.673Z,8.83
2022-11-01T03:45:51.087Z,8.20
2022-11-01T03:48:18.171Z,8.30
2022-11-01T03:50:52.505Z,8.47
2022-11-01T03:53:19.691Z,8.73
2022-11-01T03:55:46.729Z,8.40
2022-11-01T03:58:13.984Z,8.00
2022-11-01T04:00:42.341Z,8.30
2022-11-01T04:03:10.069Z,8.00
2022-11-01T04:05:37.801Z,8.03
2022-11-01T04:08:04.957Z,8.23
2022-11-01T04:10:32.207Z,8.90
2022-11-01T04:13:00.112Z,9.07
2022-11-01T04:15:46.443Z,7.90
2022-11-01T04:18:35.150Z,7.43
2022-11-01T04:21:06.969Z,8.53
2022-11-01T04:23:34.831Z,7.73
2022-11-01T04:26:02.949Z,7.47
2022-11-01T04:28:30.017Z,8.03
2022-11-01T04:30:57.056Z,7.87
2022-11-01T04:33:24.144Z,7.63
2022-11-01T04:35:51.275Z,7.73
2022-11-01T04:38:18.398Z,7.20
2022-11-01T04:40:45.491Z,7.63
2022-11-01T04:43:13.355Z,7.33
2022-11-01T04:45:40.772Z,7.63
2022-11-01T04:48:09.073Z,7.53
2022-11-01T04:50:36.242Z,7.63
2022-11-01T04:53:03.913Z,7.60
2022-11-01T04:55:31.268Z,6.83
2022-11-01T04:57:58.353Z,7.13
2022-11-01T05:00:25.879Z,6.87
2022-11-01T05:02:53.595Z,7.57
2022-11-01T05:05:20.688Z,7.20
2022-11-01T05:07:47.692Z,6.73
2022-11-01T05:10:14.738Z,7.23
2022-11-01T05:12:41.750Z,7.37
2022-11-01T05:15:09.060Z,6.83
2022-11-01T05:17:36.107Z,6.60
2022-11-01T05:20:03.196Z,6.70
2022-11-01T05:22:30.228Z,7.03
2022-11-01T05:24:57.322Z,6.70
2022-11-01T05:27:24.394Z,6.93
2022-11-01T05:29:51.461Z,6.40
2022-11-01T05:32:18.503Z,6.53
2022-11-01T05:34:46.831Z,6.90
2022-11-01T05:37:13.943Z,6.43
2022-11-01T05:39:40.977Z,6.63
2022-11-01T05:42:08.000Z,6.87
2022-11-01T05:44:35.282Z,7.30
2022-11-01T05:47:05.642Z,6.60
2022-11-01T05:49:32.793Z,6.30
2022-11-01T05:51:59.940Z,6.77
2022-11-01T05:54:27.006Z,6.67
2022-11-01T05:56:54.058Z,6.43
2022-11-01T05:59:21.167Z,6.43
2022-11-01T06:01:48.317Z,7.10
2022-11-01T06:04:15.754Z,6.83
2022-11-01T06:06:42.809Z,6.90
2022-11-01T06:09:09.891Z,6.30
2022-11-01T06:11:41.535Z,7.13
2022-11-01T06:14:11.751Z,7.07
2022-11-01T06:16:38.776Z,6.93
2022-11-01T06:19:05.872Z,6.97
2022-11-01T06:21:32.961Z,7.00
2022-11-01T06:24:00.001Z,6.80
2022-11-01T06:26:27.059Z,6.90
2022-11-01T06:28:54.075Z,7.10
2022-11-01T06:31:22.135Z,7.33
2022-11-01T06:33:50.339Z,7.27
2022-11-01T06:36:17.412Z,7.47
2022-11-01T06:38:44.444Z,7.50
2022-11-01T06:41:11.523Z,6.87
2022-11-01T06:43:38.576Z,6.70
2022-11-01T06:46:05.611Z,7.17
2022-11-01T06:48:32.647Z,7.33
2022-11-01T06:50:59.686Z,7.70
2022-11-01T06:53:26.719Z,6.93
2022-11-01T06:55:53.822Z,7.37
2022-11-01T06:58:20.894Z,7.33
2022-11-01T07:00:47.974Z,7.00
2022-11-01T07:03:15.150Z,7.10
2022-11-01T07:05:42.481Z,7.30
2022-11-01T07:08:13.386Z,6.83
2022-11-01T07:10:42.907Z,7.30
2022-11-01T07:13:11.514Z,7.07
2022-11-01T07:15:38.530Z,6.83
2022-11-01T07:18:08.220Z,7.40
2022-11-01T07:20:41.307Z,7.83
2022-11-01T07:23:15.699Z,7.93
2022-11-01T07:25:43.094Z,7.07
2022-11-01T07:28:10.262Z,6.73
2022-11-01T07:30:37.529Z,6.77
2022-11-01T07:33:05.534Z,6.70
2022-11-01T07:35:33.013Z,6.60
2022-11-01T07:38:02.829Z,7.13
2022-11-01T07:40:32.315Z,6.73
2022-11-01T07:43:00.301Z,6.53
2022-11-01T07:45:31.312Z,6.03
2022-11-01T07:48:02.648Z,6.40
2022-11-01T07:50:31.416Z,6.80
2022-11-01T07:53:05.323Z,7.07
2022-11-01T07:55:32.787Z,6.80
2022-11-01T07:58:00.436Z,6.50
2022-11-01T08:00:28.664Z,6.07
2022-11-01T08:03:03.079Z,6.60
2022-11-01T08:05:30.752Z,6.90
2022-11-01T08:07:58.116Z,6.77
2022-11-01T08:10:25.639Z,6.47
2022-11-01T08:12:52.751Z,5.80
2022-11-01T08:15:19.875Z,6.30
2022-11-01T08:17:46.965Z,6.57
2022-11-01T08:20:14.005Z,6.30
2022-11-01T08:22:41.157Z,6.53
2022-11-01T08:25:09.108Z,6.60
2022-11-01T08:27:36.256Z,5.93
2022-11-01T08:30:03.494Z,6.63
2022-11-01T08:32:30.645Z,6.47
2022-11-01T08:34:57.701Z,5.73
2022-11-01T08:37:24.830Z,5.90
2022-11-01T08:39:51.924Z,6.63
2022-11-01T08:42:19.156Z,6.53
2022-11-01T08:44:46.195Z,6.83
2022-11-01T08:47:13.356Z,6.57
2022-11-01T08:49:40.510Z,7.10
2022-11-01T08:52:07.676Z,7.30
2022-11-01T08:54:34.735Z,7.60
2022-11-01T08:57:04.927Z,7.63
2022-11-01T08:59:32.046Z,7.53
2022-11-01T09:01:59.176Z,6.93
2022-11-01T09:04:26.333Z,7.53
2022-11-01T09:06:53.441Z,7.10
2022-11-01T09:09:20.480Z,7.77
2022-11-01T09:11:47.498Z,7.67
2022-11-01T09:14:14.574Z,7.33
2022-11-01T09:16:41.619Z,7.60
2022-11-01T09:19:08.682Z,7.57
2022-11-01T09:21:35.737Z,7.23
2022-11-01T09:24:02.876Z,6.77
2022-11-01T09:26:29.968Z,6.83
2022-11-01T09:28:58.713Z,7.13
2022-11-01T09:31:26.153Z,7.40
2022-11-01T09:33:57.116Z,7.03
2022-11-01T09:36:25.251Z,6.50
2022-11-01T09:38:52.414Z,7.37
2022-11-01T09:41:33.359Z,6.90
2022-11-01T09:44:02.426Z,7.17
2022-11-01T09:46:31.819Z,7.50
2022-11-01T09:49:00.213Z,7.20
2022-11-01T09:51:28.195Z,7.37
2022-11-01T09:53:57.236Z,6.93
2022-11-01T09:56:53.693Z,7.50
2022-11-01T09:59:39.399Z,6.63
2022-11-01T10:02:26.297Z,7.13
2022-11-01T10:04:59.260Z,7.13
2022-11-01T10:07:26.255Z,7.90
2022-11-01T10:10:03.680Z,7.03
2022-11-01T10:12:30.667Z,7.57
2022-11-01T10:15:19.958Z,7.10
2022-11-01T10:17:52.367Z,7.50
2022-11-01T10:20:25.635Z,7.23
2022-11-01T10:22:52.763Z,6.93
2022-11-01T10:25:24.120Z,7.33
2022-11-01T10:27:54.603Z,7.43
2022-11-01T10:30:22.075Z,6.77
2022-11-01T10:32:53.193Z,7.33
2022-11-01T10:35:25.809Z,7.00
2022-11-01T10:38:19.328Z,7.50
2022-11-01T10:40:57.374Z,7.23
2022-11-01T10:43:26.026Z,7.40
2022-11-01T10:45:55.234Z,7.53
2022-11-01T10:48:31.330Z,7.40
2022-11-01T10:51:01.090Z,7.03
2022-11-01T10:53:29.504Z,7.07
2022-11-01T10:55:58.895Z,6.90
2022-11-01T10:58:45.660Z,7.27
2022-11-01T11:01:15.958Z,7.10
2022-11-01T11:03:43.582Z,7.43
2022-11-01T11:06:12.216Z,7.57
2022-11-01T11:08:40.359Z,7.70
2022-11-01T11:11:14.345Z,7.50
2022-11-01T11:13:46.347Z,7.43
2022-11-01T11:16:22.248Z,7.43
2022-11-01T11:19:02.423Z,7.30
2022-11-01T11:21:34.037Z,7.77
2022-11-01T11:24:01.648Z,7.07
2022-11-01T11:26:38.557Z,7.00
2022-11-01T11:29:06.055Z,7.97
2022-11-01T11:31:36.133Z,6.83
2022-11-01T11:34:41.584Z,6.70
2022-11-01T11:37:09.530Z,7.30
2022-11-01T11:39:37.649Z,7.27
2022-11-01T11:42:21.298Z,7.17
2022-11-01T11:44:56.631Z,7.80
2022-11-01T11:47:25.326Z,7.27
2022-11-01T11:49:54.114Z,7.57
2022-11-01T11:52:28.212Z,7.07
2022-11-01T11:54:55.773Z,7.20
2022-11-01T11:57:29.003Z,8.07
2022-11-01T12:00:05.482Z,7.23
2022-11-01T12:02:37.319Z,7.40
2022-11-01T12:05:06.364Z,7.30
2022-11-01T12:07:37.678Z,7.53
2022-11-01T12:10:05.764Z,7.40
2022-11-01T12:12:34.782Z,7.33
2022-11-01T12:15:03.881Z,7.27
2022-11-01T12:17:44.989Z,7.03
2022-11-01T12:20:15.058Z,7.63
2022-11-01T12:22:46.108Z,7.70
2022-11-01T12:25:18.964Z,8.17
2022-11-01T12:27:55.671Z,7.47
2022-11-01T12:30:24.911Z,7.40
2022-11-01T12:32:53.639Z,7.57
2022-11-01T12:35:42.680Z,6.60
2022-11-01T12:38:27.820Z,6.97
2022-11-01T12:40:55.237Z,7.50
2022-11-01T12:43:27.849Z,7.37
2022-11-01T12:45:57.850Z,7.23
2022-11-01T12:48:28.155Z,7.67
2022-11-01T12:51:01.060Z,7.43
2022-11-01T12:53:31.070Z,7.70
2022-11-01T12:55:58.956Z,7.27
2022-11-01T12:58:28.932Z,7.60
2022-11-01T13:01:02.307Z,7.47
2022-11-01T13:03:58.934Z,8.13
2022-11-01T13:06:37.379Z,7.57
2022-11-01T13:09:15.833Z,8.60
2022-11-01T13:12:04.625Z,8.07
2022-11-01T13:14:47.267Z,8.03
2022-11-01T13:17:24.672Z,8.83
2022-11-01T13:19:57.674Z,8.27
2022-11-01T13:22:24.784Z,8.33
2022-11-01T13:25:02.856Z,8.20
2022-11-01T13:27:38.042Z,8.37
2022-11-01T13:30:10.843Z,8.03
2022-11-01T13:32:59.224Z,8.17
2022-11-01T13:35:29.554Z,8.47
2022-11-01T13:37:59.023Z,8.23
2022-11-01T13:40:43.401Z,10.60
2022-11-01T13:43:10.451Z,8.37
2022-11-01T13:45:49.974Z,8.67
2022-11-01T13:48:35.633Z,8.67
2022-11-01T13:51:20.449Z,9.17
2022-11-01T13:53:58.260Z,8.97
2022-11-01T13:56:34.036Z,8.80
2022-11-01T13:59:03.316Z,9.33
2022-11-01T14:01:35.930Z,8.33
2022-11-01T14:04:14.865Z,9.13
2022-11-01T14:06:42.820Z,8.53
2022-11-01T14:09:21.767Z,8.50
2022-11-01T14:11:49.871Z,9.50
2022-11-01T14:14:32.042Z,8.60
2022-11-01T14:17:17.964Z,8.87
2022-11-01T14:19:47.277Z,8.80
2022-11-01T14:22:24.181Z,8.70
2022-11-01T14:25:14.606Z,9.83
2022-11-01T14:27:48.830Z,9.07
2022-11-01T14:30:26.005Z,8.63
2022-11-01T14:32:57.662Z,9.00
2022-11-01T14:35:26.827Z,8.83
2022-11-01T14:37:55.102Z,9.10
2022-11-01T14:40:22.145Z,9.17
2022-11-01T14:42:50.062Z,8.93
2022-11-01T14:45:25.216Z,8.93
2022-11-01T14:47:53.663Z,9.07
2022-11-01T14:50:29.775Z,9.03
2022-11-01T14:53:09.827Z,9.73
2022-11-01T14:55:37.382Z,9.17
2022-11-01T14:58:08.763Z,8.93
2022-11-01T15:00:35.897Z,9.73
2022-11-01T15:03:02.991Z,9.77
2022-11-01T15:05:30.104Z,9.20
2022-11-01T15:07:59.357Z,9.47
2022-11-01T15:10:27.470Z,9.80
2022-11-01T15:12:54.505Z,9.53
2022-11-01T15:15:33.258Z,10.23
2022-11-01T15:18:03.247Z,9.10
2022-11-01T15:20:32.530Z,9.50
2022-11-01T15:22:59.859Z,9.87
2022-11-01T15:25:27.292Z,9.63
2022-11-01T15:27:55.743Z,9.20
2022-11-01T15:30:22.863Z,9.27
2022-11-01T15:32:51.519Z,9.37
2022-11-01T15:35:25.994Z,9.77
2022-11-01T15:37:54.473Z,9.60
2022-11-01T15:40:32.390Z,9.77
2022-11-01T15:43:00.496Z,9.60
2022-11-01T15:45:32.080Z,10.03
2022-11-01T15:48:01.080Z,9.90
2022-11-01T15:50:34.965Z,10.33
2022-11-01T15:53:04.319Z,10.37
2022-11-01T15:55:33.677Z,10.53
2022-11-01T15:58:07.533Z,10.40
2022-11-01T16:00:36.358Z,10.07
2022-11-01T16:03:03.974Z,11.30
2022-11-01T16:05:34.302Z,10.80
2022-11-01T16:08:01.792Z,11.13
2022-11-01T16:10:30.184Z,11.17
2022-11-01T16:12:59.092Z,10.83
2022-11-01T16:15:35.666Z,10.60
2022-11-01T16:18:15.075Z,10.67
2022-11-01T16:20:42.278Z,11.23
2022-11-01T16:23:10.033Z,10.47
2022-11-01T16:25:38.481Z,11.13
2022-11-01T16:28:11.523Z,10.60
2022-11-01T16:30:42.780Z,11.07
2022-11-01T16:33:22.165Z,11.17
2022-11-01T16:35:50.768Z,11.63
2022-11-01T16:38:22.243Z,10.70
2022-11-01T16:40:51.223Z,11.23
2022-11-01T16:43:18.251Z,12.30
2022-11-01T16:45:45.337Z,11.83
2022-11-01T16:48:41.716Z,11.10
2022-11-01T16:51:09.796Z,11.20
2022-11-01T16:53:36.850Z,11.30
2022-11-01T16:56:34.952Z,11.17
2022-11-01T16:58:58.765Z,11.57
2022-11-01T17:01:34.183Z,11.17
2022-11-01T17:04:02.527Z,12.07
2022-11-01T17:06:32.318Z,12.70
2022-11-01T17:09:01.737Z,11.37
2022-11-01T17:11:28.835Z,12.23
2022-11-01T17:13:55.890Z,12.20
2022-11-01T17:16:29.509Z,12.40
2022-11-01T17:18:58.516Z,11.63
2022-11-01T17:21:26.010Z,12.23
2022-11-01T17:23:53.114Z,12.17
2022-11-01T17:26:20.461Z,11.77
2022-11-01T17:28:51.266Z,12.97
2022-11-01T17:31:19.425Z,12.43
2022-11-01T17:33:46.443Z,12.37
2022-11-01T17:36:14.525Z,13.10
2022-11-01T17:38:41.753Z,13.50
2022-11-01T17:41:10.894Z,13.73
2022-11-01T17:43:37.966Z,13.13
2022-11-01T17:46:11.933Z,13.23
2022-11-01T17:48:39.002Z,13.53
2022-11-01T17:51:06.678Z,13.13
2022-11-01T17:53:34.732Z,14.13
2022-11-01T17:56:01.831Z,13.53
2022-11-01T17:58:28.949Z,13.90
2022-11-01T18:00:57.070Z,13.50
2022-11-01T18:03:24.148Z,13.73
2022-11-01T18:05:51.204Z,13.83
2022-11-01T18:08:20.272Z,13.33
2022-11-01T18:10:47.328Z,13.63
2022-11-01T18:13:30.067Z,13.87
2022-11-01T18:16:01.371Z,13.60
2022-11-01T18:18:31.747Z,13.33
2022-11-01T18:21:09.724Z,13.53
2022-11-01T18:23:37.199Z,13.93
2022-11-01T18:26:04.277Z,14.23
2022-11-01T18:28:34.998Z,13.67
2022-11-01T18:31:03.541Z,13.80
2022-11-01T18:33:35.501Z,14.17
2022-11-01T18:36:14.526Z,14.03
2022-11-01T18:39:19.900Z,14.17
2022-11-01T18:41:48.053Z,14.30
2022-11-01T18:44:15.271Z,14.33
2022-11-01T18:46:51.123Z,14.00
2022-11-01T18:49:18.263Z,13.63
2022-11-01T18:51:46.387Z,13.93
2022-11-01T18:54:16.570Z,13.77
2022-11-01T18:56:47.308Z,13.20
2022-11-01T18:59:16.432Z,14.30
2022-11-01T19:01:44.026Z,13.70
2022-11-01T19:04:20.652Z,13.57
2022-11-01T19:06:47.972Z,13.73
2022-11-01T19:09:24.168Z,13.70
2022-11-01T19:12:01.498Z,13.27
2022-11-01T19:14:29.133Z,13.23
2022-11-01T19:16:56.441Z,13.43
2022-11-01T19:19:23.582Z,13.63
2022-11-01T19:21:50.649Z,13.37
2022-11-01T19:24:35.033Z,13.27
2022-11-01T19:27:03.219Z,13.27
2022-11-01T19:29:32.659Z,14.20
2022-11-01T19:32:00.860Z,15.00
2022-11-01T19:34:30.057Z,14.57
2022-11-01T19:36:57.624Z,15.50
2022-11-01T19:39:28.971Z,14.00
2022-11-01T19:42:00.715Z,14.73
2022-11-01T19:44:28.627Z,14.13
2022-11-01T19:46:59.563Z,13.93
2022-11-01T19:49:29.211Z,14.23
2022-11-01T19:52:08.600Z,14.10
2022-11-01T19:54:37.096Z,16.83
2022-11-01T19:59:57.184Z,14.47
2022-11-01T20:02:24.486Z,17.03
2022-11-01T20:04:58.117Z,16.30
2022-11-01T20:07:26.920Z,16.63
2022-11-01T20:09:58.396Z,15.57
2022-11-01T20:12:25.926Z,16.23
2022-11-01T20:14:52.976Z,13.80
2022-11-01T20:17:20.026Z,13.83
2022-11-01T20:19:47.099Z,13.40
2022-11-01T20:22:14.185Z,14.40
2022-11-01T20:24:41.268Z,14.57
2022-11-01T20:27:08.329Z,13.40
2022-11-01T20:29:35.353Z,12.57
2022-11-01T20:32:02.404Z,12.60
2022-11-01T20:34:29.440Z,12.83
2022-11-01T20:37:22.625Z,14.77
2022-11-01T20:39:43.519Z,12.10
2022-11-01T20:42:10.558Z,12.10
2022-11-01T20:44:37.657Z,12.23
2022-11-01T20:47:04.739Z,10.83
2022-11-01T20:49:31.751Z,10.10
2022-11-01T20:52:13.544Z,12.67
2022-11-01T20:54:46.132Z,10.50
2022-11-01T20:57:25.046Z,10.47
2022-11-01T20:59:55.584Z,10.70
2022-11-01T21:02:22.844Z,11.30
2022-11-01T21:04:53.460Z,10.93
2022-11-01T21:07:20.622Z,10.10
2022-11-01T21:09:47.782Z,10.27
2022-11-01T21:12:29.965Z,10.73
2022-11-01T21:15:03.512Z,11.90
2022-11-01T21:17:30.585Z,10.83
2022-11-01T21:19:57.612Z,10.57
2022-11-01T21:22:24.926Z,9.03
2022-11-01T21:24:52.150Z,8.80
2022-11-01T21:30:03.630Z,8.80
2022-11-01T21:32:35.018Z,9.20
2022-11-01T21:35:20.612Z,9.17
2022-11-01T21:37:52.093Z,9.57
2022-11-01T21:40:27.024Z,8.37
2022-11-01T21:42:54.889Z,9.30
2022-11-01T21:45:28.600Z,8.07
2022-11-01T21:47:56.526Z,8.73
2022-11-01T21:50:23.579Z,9.50
2022-11-01T21:52:50.635Z,8.87
2022-11-01T21:55:17.694Z,8.50
2022-11-01T21:57:44.751Z,8.20
2022-11-01T22:00:14.269Z,8.33
2022-11-01T22:02:41.402Z,7.43
2022-11-01T22:05:08.583Z,7.13
2022-11-01T22:07:35.605Z,7.07
2022-11-01T22:10:02.667Z,6.57
2022-11-01T22:12:29.748Z,6.10
2022-11-01T22:14:56.876Z,5.80
2022-11-01T22:17:23.897Z,6.20
2022-11-01T22:19:50.908Z,5.83
2022-11-01T22:22:18.013Z,6.33
2022-11-01T22:24:45.096Z,6.27
2022-11-01T22:27:12.132Z,6.43
2022-11-01T22:29:39.171Z,5.93
2022-11-01T22:32:06.215Z,6.33
2022-11-01T22:34:33.353Z,5.80
2022-11-01T22:37:01.039Z,6.10
2022-11-01T22:39:28.283Z,4.87
2022-11-01T22:41:55.400Z,5.83
2022-11-01T22:44:31.205Z,5.30
2022-11-01T22:47:01.817Z,5.37
2022-11-01T22:49:30.124Z,4.83
2022-11-01T22:52:00.048Z,5.33
2022-11-01T22:54:30.353Z,5.40
2022-11-01T22:57:17.651Z,5.20
2022-11-01T22:59:55.677Z,5.53
2022-11-01T23:02:28.845Z,5.80
2022-11-01T23:05:16.794Z,5.93
2022-11-01T23:07:47.322Z,5.43
2022-11-01T23:10:25.464Z,5.50
2022-11-01T23:13:14.896Z,5.50
2022-11-01T23:15:41.978Z,5.50
2022-11-01T23:18:28.789Z,5.53
2022-11-01T23:20:57.426Z,5.83
2022-11-01T23:23:25.101Z,6.03
2022-11-01T23:25:52.709Z,6.20
2022-11-01T23:28:19.803Z,6.10
2022-11-01T23:30:48.027Z,6.77
2022-11-01T23:33:17.044Z,6.70
2022-11-01T23:35:51.948Z,6.93
2022-11-01T23:38:21.841Z,6.27
2022-11-01T23:40:50.177Z,6.60
2022-11-01T23:43:21.592Z,7.13
2022-11-01T23:45:48.905Z,6.37
2022-11-01T23:48:16.109Z,7.67
2022-11-01T23:50:43.708Z,7.07
2022-11-01T23:53:12.885Z,7.13
2022-11-01T23:55:41.652Z,7.93
2022-11-01T23:58:13.148Z,7.40
